createdAt,value
2023-12-09T00:00:38.757Z,92.11
2023-12-09T00:01:38.741Z,92.32
2023-12-09T00:02:38.688Z,92.11
2023-12-09T00:03:38.802Z,92.16
2023-12-09T00:04:38.742Z,92.11
2023-12-09T00:05:38.674Z,92.05
2023-12-09T00:06:38.900Z,92.01
2023-12-09T00:07:38.637Z,91.74
2023-12-09T00:08:38.630Z,91.95
2023-12-09T00:09:38.650Z,92.16
2023-12-09T00:10:38.638Z,92.05
2023-12-09T00:11:38.602Z,91.95
2023-12-09T00:12:38.657Z,91.95
2023-12-09T00:13:38.573Z,91.91
2023-12-09T00:14:38.566Z,92.36
2023-12-09T00:15:38.664Z,91.95
2023-12-09T00:16:38.543Z,91.95
2023-12-09T00:17:38.533Z,92.05
2023-12-09T00:18:38.753Z,91.95
2023-12-09T00:19:38.563Z,92.01
2023-12-09T00:20:38.516Z,91.85
2023-12-09T00:21:38.486Z,91.95
2023-12-09T00:22:38.477Z,92.05
2023-12-09T00:23:47.209Z,92.16
2023-12-09T00:24:39.553Z,91.95
2023-12-09T00:25:38.459Z,91.95
2023-12-09T00:26:38.458Z,92.16
2023-12-09T00:27:38.432Z,91.85
2023-12-09T00:28:38.417Z,92.05
2023-12-09T00:29:38.409Z,91.64
2023-12-09T00:30:38.508Z,91.95
2023-12-09T00:31:38.378Z,91.85
2023-12-09T00:32:38.425Z,91.53
2023-12-09T00:33:38.527Z,92.05
2023-12-09T00:34:38.384Z,92.05
2023-12-09T00:35:38.338Z,91.85
2023-12-09T00:36:38.391Z,91.95
2023-12-09T00:37:38.314Z,92.05
2023-12-09T00:38:38.313Z,91.95
2023-12-09T00:39:38.308Z,92.01
2023-12-09T00:40:38.294Z,92.01
2023-12-09T00:41:38.277Z,92.11
2023-12-09T00:42:38.317Z,91.64
2023-12-09T00:43:38.268Z,92.05
2023-12-09T00:44:38.253Z,91.64
2023-12-09T00:45:38.265Z,91.80
2023-12-09T00:46:38.219Z,91.74
2023-12-09T00:47:38.238Z,92.05
2023-12-09T00:48:38.354Z,91.85
2023-12-09T00:49:38.243Z,91.95
2023-12-09T00:50:38.181Z,91.74
2023-12-09T00:51:38.189Z,91.53
2023-12-09T00:52:38.165Z,92.01
2023-12-09T00:53:38.157Z,92.11
2023-12-09T00:54:38.137Z,92.11
2023-12-09T00:55:38.127Z,92.01
2023-12-09T00:56:38.111Z,92.05
2023-12-09T00:57:38.143Z,92.11
2023-12-09T00:58:38.133Z,91.74
2023-12-09T00:59:38.088Z,91.70
2023-12-09T01:00:38.187Z,91.70
2023-12-09T01:01:38.067Z,91.28
2023-12-09T01:02:38.099Z,91.49
2023-12-09T01:03:38.192Z,91.91
2023-12-09T01:04:38.083Z,92.22
2023-12-09T01:05:38.017Z,92.11
2023-12-09T01:06:38.005Z,91.49
2023-12-09T01:07:38.020Z,91.70
2023-12-09T01:08:37.988Z,91.91
2023-12-09T01:09:38.004Z,91.70
2023-12-09T01:10:37.963Z,92.01
2023-12-09T01:11:37.972Z,91.80
2023-12-09T01:12:38.000Z,91.39
2023-12-09T01:13:37.930Z,91.97
2023-12-09T01:14:37.945Z,91.28
2023-12-09T01:15:37.948Z,91.60
2023-12-09T01:16:37.930Z,91.49
2023-12-09T01:17:37.922Z,91.49
2023-12-09T01:18:37.972Z,91.49
2023-12-09T01:19:37.879Z,91.55
2023-12-09T01:20:37.856Z,91.76
2023-12-09T01:21:37.933Z,91.80
2023-12-09T01:22:37.840Z,91.80
2023-12-09T01:23:37.826Z,91.35
2023-12-09T01:24:37.817Z,91.55
2023-12-09T01:25:37.828Z,91.60
2023-12-09T01:26:37.828Z,91.08
2023-12-09T01:27:37.791Z,91.28
2023-12-09T01:28:37.795Z,92.01
2023-12-09T01:29:37.761Z,91.39
2023-12-09T01:30:37.894Z,91.80
2023-12-09T01:31:37.739Z,91.60
2023-12-09T01:32:37.792Z,91.80
2023-12-09T01:33:37.922Z,91.45
2023-12-09T01:34:37.909Z,91.24
2023-12-09T01:35:37.718Z,91.24
2023-12-09T01:36:37.692Z,91.39
2023-12-09T01:37:37.676Z,91.28
2023-12-09T01:38:37.668Z,91.14
2023-12-09T01:39:37.676Z,91.28
2023-12-09T01:40:37.676Z,91.39
2023-12-09T01:41:37.641Z,91.49
2023-12-09T01:42:37.671Z,91.28
2023-12-09T01:43:37.615Z,91.49
2023-12-09T01:44:37.623Z,91.39
2023-12-09T01:45:37.669Z,91.60
2023-12-09T01:46:37.609Z,91.18
2023-12-09T01:47:37.581Z,91.55
2023-12-09T01:48:37.781Z,91.80
2023-12-09T01:49:37.740Z,91.70
2023-12-09T01:50:37.636Z,91.45
2023-12-09T01:51:37.540Z,91.91
2023-12-09T01:52:37.541Z,91.70
2023-12-09T01:53:37.555Z,91.66
2023-12-09T01:54:37.527Z,91.45
2023-12-09T01:55:37.504Z,91.24
2023-12-09T01:56:37.485Z,91.14
2023-12-09T01:57:37.473Z,91.24
2023-12-09T01:58:37.480Z,91.14
2023-12-09T01:59:37.467Z,91.18
2023-12-09T02:00:37.560Z,90.83
2023-12-09T02:01:37.448Z,90.83
2023-12-09T02:02:37.462Z,90.72
2023-12-09T02:03:37.496Z,90.97
2023-12-09T02:04:37.452Z,90.52
2023-12-09T02:05:37.390Z,91.08
2023-12-09T02:06:37.374Z,90.72
2023-12-09T02:07:37.377Z,90.72
2023-12-09T02:08:37.376Z,91.03
2023-12-09T02:09:37.348Z,91.03
2023-12-09T02:10:37.327Z,91.35
2023-12-09T02:11:37.341Z,90.83
2023-12-09T02:12:37.478Z,90.72
2023-12-09T02:13:37.311Z,90.52
2023-12-09T02:14:37.286Z,90.83
2023-12-09T02:15:37.286Z,90.83
2023-12-09T02:16:37.263Z,90.93
2023-12-09T02:17:37.302Z,90.83
2023-12-09T02:18:37.401Z,90.93
2023-12-09T02:19:37.284Z,90.52
2023-12-09T02:20:37.223Z,90.62
2023-12-09T02:21:37.214Z,90.72
2023-12-09T02:22:37.210Z,90.72
2023-12-09T02:23:37.201Z,90.41
2023-12-09T02:24:37.179Z,90.41
2023-12-09T02:25:37.177Z,90.72
2023-12-09T02:26:37.194Z,91.03
2023-12-09T02:27:37.171Z,90.62
2023-12-09T02:28:37.153Z,91.24
2023-12-09T02:29:37.129Z,90.72
2023-12-09T02:30:37.198Z,90.62
2023-12-09T02:31:37.145Z,90.72
2023-12-09T02:32:37.118Z,90.72
2023-12-09T02:33:37.308Z,91.24
2023-12-09T02:34:37.157Z,91.24
2023-12-09T02:35:37.087Z,91.03
2023-12-09T02:36:37.122Z,91.66
2023-12-09T02:37:37.040Z,91.03
2023-12-09T02:38:37.034Z,91.66
2023-12-09T02:39:37.024Z,91.20
2023-12-09T02:40:37.009Z,91.24
2023-12-09T02:41:37.013Z,90.93
2023-12-09T02:42:37.017Z,90.83
2023-12-09T02:43:36.982Z,90.93
2023-12-09T02:44:36.969Z,91.66
2023-12-09T02:45:37.017Z,91.76
2023-12-09T02:46:36.965Z,90.93
2023-12-09T02:47:37.030Z,91.62
2023-12-09T02:48:37.026Z,91.24
2023-12-09T02:49:36.977Z,90.83
2023-12-09T02:50:36.941Z,90.79
2023-12-09T02:51:36.927Z,90.58
2023-12-09T02:52:36.881Z,90.58
2023-12-09T02:53:36.897Z,90.89
2023-12-09T02:54:36.876Z,90.48
2023-12-09T02:55:36.869Z,90.58
2023-12-09T02:56:36.837Z,90.48
2023-12-09T02:57:36.916Z,90.69
2023-12-09T02:58:36.816Z,90.58
2023-12-09T02:59:36.846Z,90.37
2023-12-09T03:00:36.892Z,90.79
2023-12-09T03:01:36.787Z,90.37
2023-12-09T03:02:36.793Z,90.17
2023-12-09T03:03:36.823Z,89.96
2023-12-09T03:04:36.790Z,89.86
2023-12-09T03:05:36.758Z,90.41
2023-12-09T03:06:36.773Z,90.31
2023-12-09T03:07:36.725Z,90.31
2023-12-09T03:08:36.720Z,90.48
2023-12-09T03:09:36.762Z,90.41
2023-12-09T03:10:36.701Z,90.83
2023-12-09T03:11:36.682Z,90.31
2023-12-09T03:12:36.747Z,90.62
2023-12-09T03:13:36.679Z,90.58
2023-12-09T03:14:36.665Z,90.58
2023-12-09T03:15:36.829Z,90.41
2023-12-09T03:16:36.627Z,90.52
2023-12-09T03:17:36.778Z,90.41
2023-12-09T03:18:36.723Z,90.89
2023-12-09T03:19:36.707Z,91.03
2023-12-09T03:20:36.578Z,90.58
2023-12-09T03:21:36.569Z,90.58
2023-12-09T03:22:36.578Z,91.03
2023-12-09T03:23:36.569Z,91.31
2023-12-09T03:24:36.577Z,90.89
2023-12-09T03:25:36.537Z,91.20
2023-12-09T03:26:36.521Z,91.31
2023-12-09T03:27:36.571Z,91.31
2023-12-09T03:28:36.519Z,91.14
2023-12-09T03:29:36.488Z,91.35
2023-12-09T03:30:36.555Z,91.14
2023-12-09T03:31:36.472Z,91.41
2023-12-09T03:32:36.503Z,91.45
2023-12-09T03:33:36.613Z,91.72
2023-12-09T03:34:36.504Z,91.83
2023-12-09T03:35:36.441Z,91.76
2023-12-09T03:36:36.439Z,91.45
2023-12-09T03:37:36.423Z,91.62
2023-12-09T03:38:36.412Z,91.41
2023-12-09T03:39:36.436Z,91.52
2023-12-09T03:40:36.368Z,91.41
2023-12-09T03:41:36.373Z,91.31
2023-12-09T03:42:36.453Z,91.93
2023-12-09T03:43:36.378Z,91.31
2023-12-09T03:44:36.329Z,91.55
2023-12-09T03:45:36.345Z,91.52
2023-12-09T03:46:36.318Z,91.76
2023-12-09T03:47:36.331Z,91.24
2023-12-09T03:48:36.452Z,91.45
2023-12-09T03:49:36.520Z,91.66
2023-12-09T03:50:36.269Z,91.45
2023-12-09T03:51:36.330Z,91.86
2023-12-09T03:52:36.242Z,92.03
2023-12-09T03:53:36.233Z,91.86
2023-12-09T03:54:36.266Z,91.76
2023-12-09T03:55:36.227Z,92.18
2023-12-09T03:56:36.213Z,92.28
2023-12-09T03:57:36.226Z,92.18
2023-12-09T03:58:36.181Z,92.18
2023-12-09T03:59:36.180Z,92.38
2023-12-09T04:00:36.239Z,92.07
2023-12-09T04:01:36.168Z,92.07
2023-12-09T04:02:36.150Z,92.28
2023-12-09T04:03:36.177Z,92.28
2023-12-09T04:04:36.127Z,92.28
2023-12-09T04:05:36.165Z,92.28
2023-12-09T04:06:36.136Z,92.59
2023-12-09T04:07:36.089Z,92.49
2023-12-09T04:08:36.118Z,92.69
2023-12-09T04:09:36.186Z,92.59
2023-12-09T04:10:36.088Z,92.80
2023-12-09T04:11:36.039Z,93.01
2023-12-09T04:12:36.107Z,92.59
2023-12-09T04:13:36.031Z,92.66
2023-12-09T04:14:36.034Z,92.69
2023-12-09T04:15:36.022Z,92.69
2023-12-09T04:16:36.005Z,92.80
2023-12-09T04:17:36.020Z,92.76
2023-12-09T04:18:36.115Z,92.80
2023-12-09T04:19:36.169Z,92.76
2023-12-09T04:20:35.999Z,92.55
2023-12-09T04:21:35.964Z,92.76
2023-12-09T04:22:35.922Z,92.86
2023-12-09T04:23:35.927Z,92.86
2023-12-09T04:24:35.966Z,92.76
2023-12-09T04:25:35.893Z,92.76
2023-12-09T04:26:35.910Z,92.76
2023-12-09T04:27:35.927Z,92.76
2023-12-09T04:28:35.883Z,92.86
2023-12-09T04:29:35.863Z,92.55
2023-12-09T04:30:35.864Z,92.66
2023-12-09T04:31:35.845Z,92.86
2023-12-09T04:32:35.858Z,92.66
2023-12-09T04:33:35.896Z,92.59
2023-12-09T04:34:35.814Z,92.97
2023-12-09T04:35:35.810Z,92.90
2023-12-09T04:36:35.822Z,92.66
2023-12-09T04:37:35.786Z,92.69
2023-12-09T04:38:35.768Z,92.90
2023-12-09T04:39:35.796Z,92.90
2023-12-09T04:40:35.741Z,92.76
2023-12-09T04:41:35.724Z,92.80
2023-12-09T04:42:35.779Z,92.59
2023-12-09T04:43:35.705Z,93.12
2023-12-09T04:44:35.733Z,93.12
2023-12-09T04:45:35.702Z,93.12
2023-12-09T04:46:35.670Z,93.01
2023-12-09T04:47:35.782Z,93.01
2023-12-09T04:48:35.754Z,93.43
2023-12-09T04:49:35.777Z,93.22
2023-12-09T04:50:35.628Z,93.32
2023-12-09T04:51:35.736Z,93.22
2023-12-09T04:52:35.620Z,93.12
2023-12-09T04:53:37.188Z,93.43
2023-12-09T04:54:35.597Z,93.53
2023-12-09T04:55:35.585Z,93.63
2023-12-09T04:56:35.585Z,94.15
2023-12-09T04:57:35.634Z,94.05
2023-12-09T04:58:35.569Z,94.05
2023-12-09T04:59:35.540Z,94.05
2023-12-09T05:00:35.546Z,94.26
2023-12-09T05:01:35.539Z,93.84
2023-12-09T05:02:35.502Z,93.63
2023-12-09T05:03:35.551Z,93.70
2023-12-09T05:04:35.516Z,93.84
2023-12-09T05:05:35.529Z,93.84
2023-12-09T05:06:35.506Z,94.36
2023-12-09T05:07:35.453Z,94.63
2023-12-09T05:08:35.451Z,94.78
2023-12-09T05:09:35.462Z,94.46
2023-12-09T05:10:35.437Z,94.57
2023-12-09T05:11:35.411Z,94.46
2023-12-09T05:12:35.446Z,94.36
2023-12-09T05:13:35.386Z,94.57
2023-12-09T05:14:35.401Z,94.46
2023-12-09T05:15:35.416Z,94.67
2023-12-09T05:16:35.362Z,94.36
2023-12-09T05:17:35.363Z,94.36
2023-12-09T05:18:35.430Z,94.57
2023-12-09T05:19:35.453Z,94.32
2023-12-09T05:20:35.330Z,94.36
2023-12-09T05:21:36.547Z,94.46
2023-12-09T05:22:35.302Z,94.57
2023-12-09T05:23:35.277Z,94.42
2023-12-09T05:24:35.337Z,94.26
2023-12-09T05:25:35.261Z,94.53
2023-12-09T05:26:35.246Z,94.46
2023-12-09T05:27:35.284Z,94.32
2023-12-09T05:28:35.231Z,94.53
2023-12-09T05:29:35.242Z,94.53
2023-12-09T05:30:35.252Z,94.53
2023-12-09T05:31:35.194Z,94.42
2023-12-09T05:32:35.197Z,94.42
2023-12-09T05:33:35.267Z,94.53
2023-12-09T05:34:35.313Z,94.42
2023-12-09T05:35:35.155Z,94.42
2023-12-09T05:36:35.191Z,94.53
2023-12-09T05:37:35.161Z,94.53
2023-12-09T05:38:35.137Z,94.53
2023-12-09T05:39:35.127Z,94.42
2023-12-09T05:40:36.040Z,94.42
2023-12-09T05:41:35.088Z,94.32
2023-12-09T05:42:35.135Z,94.42
2023-12-09T05:43:35.082Z,94.42
2023-12-09T05:44:35.054Z,94.53
2023-12-09T05:45:35.116Z,94.42
2023-12-09T05:46:35.050Z,94.42
2023-12-09T05:47:35.124Z,94.32
2023-12-09T05:48:35.228Z,94.21
2023-12-09T05:49:35.172Z,94.42
2023-12-09T05:50:34.996Z,94.53
2023-12-09T05:51:35.013Z,94.53
2023-12-09T05:52:35.038Z,94.63
2023-12-09T05:53:34.964Z,94.42
2023-12-09T05:54:35.117Z,94.73
2023-12-09T05:55:34.939Z,94.73
2023-12-09T05:56:34.928Z,94.46
2023-12-09T05:57:34.972Z,94.53
2023-12-09T05:58:34.915Z,94.32
2023-12-09T05:59:34.907Z,94.42
2023-12-09T06:00:36.913Z,94.57
2023-12-09T06:01:34.929Z,94.53
2023-12-09T06:02:34.897Z,94.73
2023-12-09T06:03:35.041Z,94.67
2023-12-09T06:04:34.872Z,94.84
2023-12-09T06:05:34.869Z,95.04
2023-12-09T06:06:34.888Z,95.36
2023-12-09T06:07:34.807Z,95.46
2023-12-09T06:08:34.825Z,95.15
2023-12-09T06:09:34.879Z,95.15
2023-12-09T06:10:34.780Z,95.15
2023-12-09T06:11:34.787Z,94.84
2023-12-09T06:12:34.798Z,95.36
2023-12-09T06:13:34.748Z,95.15
2023-12-09T06:14:34.741Z,95.25
2023-12-09T06:15:34.833Z,95.46
2023-12-09T06:16:34.729Z,95.36
2023-12-09T06:17:34.753Z,95.15
2023-12-09T06:18:34.760Z,95.15
2023-12-09T06:19:34.707Z,95.25
2023-12-09T06:20:34.713Z,94.84
2023-12-09T06:21:34.740Z,95.67
2023-12-09T06:22:34.662Z,95.77
2023-12-09T06:23:34.638Z,95.56
2023-12-09T06:24:34.695Z,95.67
2023-12-09T06:25:34.647Z,95.77
2023-12-09T06:26:34.612Z,95.56
2023-12-09T06:27:34.654Z,95.77
2023-12-09T06:28:34.591Z,95.67
2023-12-09T06:29:34.575Z,95.56
2023-12-09T06:30:34.947Z,95.56
2023-12-09T06:31:34.561Z,95.04
2023-12-09T06:32:34.557Z,96.08
2023-12-09T06:33:34.657Z,95.67
2023-12-09T06:34:34.735Z,95.67
2023-12-09T06:35:34.524Z,95.61
2023-12-09T06:36:34.543Z,95.56
2023-12-09T06:37:34.530Z,95.29
2023-12-09T06:38:34.480Z,95.50
2023-12-09T06:39:34.552Z,95.40
2023-12-09T06:40:34.469Z,95.25
2023-12-09T06:41:34.464Z,95.81
2023-12-09T06:42:34.506Z,95.71
2023-12-09T06:43:34.428Z,95.92
2023-12-09T06:44:34.520Z,96.12
2023-12-09T06:45:34.484Z,95.81
2023-12-09T06:46:34.397Z,95.50
2023-12-09T06:47:34.448Z,95.61
2023-12-09T06:48:34.590Z,95.71
2023-12-09T06:49:34.470Z,95.81
2023-12-09T06:50:34.392Z,95.86
2023-12-09T06:51:34.529Z,96.23
2023-12-09T06:52:34.333Z,96.64
2023-12-09T06:53:34.360Z,96.44
2023-12-09T06:54:34.386Z,96.75
2023-12-09T06:55:34.294Z,96.33
2023-12-09T06:56:34.293Z,96.44
2023-12-09T06:57:34.317Z,96.54
2023-12-09T06:58:34.305Z,96.64
2023-12-09T06:59:34.258Z,96.54
2023-12-09T07:00:34.438Z,96.64
2023-12-09T07:01:34.303Z,96.39
2023-12-09T07:02:44.490Z,96.39
2023-12-09T07:03:35.291Z,97.12
2023-12-09T07:04:34.306Z,96.70
2023-12-09T07:05:34.232Z,96.60
2023-12-09T07:06:34.253Z,96.60
2023-12-09T07:07:34.197Z,96.50
2023-12-09T07:08:34.168Z,96.29
2023-12-09T07:09:34.256Z,96.19
2023-12-09T07:10:34.145Z,96.45
2023-12-09T07:11:34.134Z,96.70
2023-12-09T07:12:34.158Z,96.50
2023-12-09T07:13:34.113Z,96.39
2023-12-09T07:14:34.101Z,96.39
2023-12-09T07:15:34.116Z,96.50
2023-12-09T07:16:34.089Z,96.29
2023-12-09T07:17:34.262Z,96.39
2023-12-09T07:18:34.133Z,96.24
2023-12-09T07:19:34.139Z,96.24
2023-12-09T07:20:34.039Z,96.14
2023-12-09T07:21:34.111Z,96.03
2023-12-09T07:22:34.047Z,95.93
2023-12-09T07:23:34.007Z,95.93
2023-12-09T07:24:34.028Z,95.72
2023-12-09T07:25:33.998Z,95.62
2023-12-09T07:26:33.996Z,95.72
2023-12-09T07:27:34.073Z,95.72
2023-12-09T07:28:33.989Z,95.72
2023-12-09T07:29:33.943Z,95.83
2023-12-09T07:30:34.050Z,95.62
2023-12-09T07:31:33.943Z,95.41
2023-12-09T07:32:34.107Z,95.51
2023-12-09T07:33:34.228Z,95.41
2023-12-09T07:34:34.026Z,95.62
2023-12-09T07:35:33.900Z,96.03
2023-12-09T07:36:33.955Z,95.51
2023-12-09T07:37:33.862Z,95.51
2023-12-09T07:38:33.889Z,95.51
2023-12-09T07:39:33.917Z,95.51
2023-12-09T07:40:33.909Z,95.72
2023-12-09T07:41:33.841Z,95.68
2023-12-09T07:42:33.842Z,95.68
2023-12-09T07:43:33.787Z,95.37
2023-12-09T07:44:33.822Z,96.03
2023-12-09T07:45:33.839Z,95.51
2023-12-09T07:46:33.801Z,95.41
2023-12-09T07:47:33.773Z,95.93
2023-12-09T07:48:33.934Z,95.93
2023-12-09T07:49:33.912Z,95.68
2023-12-09T07:50:33.718Z,95.47
2023-12-09T07:51:33.752Z,95.89
2023-12-09T07:52:33.710Z,95.89
2023-12-09T07:53:33.684Z,95.57
2023-12-09T07:54:33.776Z,95.78
2023-12-09T07:55:33.696Z,95.62
2023-12-09T07:56:33.658Z,95.26
2023-12-09T07:57:33.668Z,95.47
2023-12-09T07:58:33.637Z,95.26
2023-12-09T07:59:33.660Z,95.26
2023-12-09T08:00:33.686Z,95.37
2023-12-09T08:01:33.679Z,95.26
2023-12-09T08:02:33.591Z,95.37
2023-12-09T08:03:33.666Z,95.47
2023-12-09T08:04:33.632Z,95.37
2023-12-09T08:05:33.595Z,95.37
2023-12-09T08:06:33.594Z,95.37
2023-12-09T08:07:33.533Z,95.57
2023-12-09T08:08:33.564Z,95.41
2023-12-09T08:09:33.538Z,95.26
2023-12-09T08:10:33.524Z,95.37
2023-12-09T08:11:33.491Z,95.37
2023-12-09T08:12:33.523Z,95.47
2023-12-09T08:13:33.490Z,95.37
2023-12-09T08:14:33.458Z,95.57
2023-12-09T08:15:33.488Z,95.47
2023-12-09T08:16:33.438Z,95.68
2023-12-09T08:17:33.449Z,95.57
2023-12-09T08:18:33.535Z,95.57
2023-12-09T08:19:33.578Z,95.68
2023-12-09T08:20:33.406Z,95.53
2023-12-09T08:21:33.422Z,95.53
2023-12-09T08:22:33.401Z,95.64
2023-12-09T08:23:33.370Z,95.53
2023-12-09T08:24:33.426Z,95.12
2023-12-09T08:25:33.336Z,94.91
2023-12-09T08:26:33.364Z,95.12
2023-12-09T08:27:33.387Z,95.12
2023-12-09T08:28:33.311Z,94.91
2023-12-09T08:29:33.296Z,95.01
2023-12-09T08:30:33.355Z,95.12
2023-12-09T08:31:33.311Z,94.91
2023-12-09T08:32:33.313Z,94.87
2023-12-09T08:33:33.351Z,94.76
2023-12-09T08:34:33.374Z,94.45
2023-12-09T08:35:33.251Z,94.14
2023-12-09T08:36:33.294Z,94.29
2023-12-09T08:37:33.214Z,94.45
2023-12-09T08:38:33.201Z,94.24
2023-12-09T08:39:33.215Z,94.04
2023-12-09T08:40:33.179Z,94.35
2023-12-09T08:41:33.185Z,94.24
2023-12-09T08:42:33.269Z,94.35
2023-12-09T08:43:33.145Z,94.45
2023-12-09T08:44:33.138Z,94.14
2023-12-09T08:45:33.275Z,94.24
2023-12-09T08:46:33.145Z,94.24
2023-12-09T08:47:33.126Z,94.24
2023-12-09T08:48:33.396Z,94.24
2023-12-09T08:49:33.178Z,94.35
2023-12-09T08:50:33.100Z,94.56
2023-12-09T08:51:33.105Z,94.35
2023-12-09T08:52:33.066Z,94.10
2023-12-09T08:53:33.039Z,93.52
2023-12-09T08:54:33.054Z,93.41
2023-12-09T08:55:33.045Z,93.48
2023-12-09T08:56:33.067Z,93.62
2023-12-09T08:57:33.083Z,93.79
2023-12-09T08:58:33.009Z,93.83
2023-12-09T08:59:33.018Z,93.79
2023-12-09T09:00:33.063Z,93.79
2023-12-09T09:01:32.976Z,93.79
2023-12-09T09:02:32.951Z,93.68
2023-12-09T09:03:32.965Z,93.48
2023-12-09T09:04:32.993Z,93.68
2023-12-09T09:05:32.979Z,93.58
2023-12-09T09:06:32.944Z,93.58
2023-12-09T09:07:32.891Z,93.37
2023-12-09T09:08:32.891Z,93.48
2023-12-09T09:09:32.906Z,93.06
2023-12-09T09:10:32.860Z,93.06
2023-12-09T09:11:32.847Z,93.10
2023-12-09T09:12:32.971Z,92.85
2023-12-09T09:13:32.848Z,92.85
2023-12-09T09:14:32.872Z,92.96
2023-12-09T09:15:32.823Z,92.85
2023-12-09T09:16:32.803Z,93.16
2023-12-09T09:17:32.807Z,92.96
2023-12-09T09:18:32.884Z,93.37
2023-12-09T09:19:32.838Z,92.96
2023-12-09T09:20:32.758Z,92.96
2023-12-09T09:21:32.765Z,93.16
2023-12-09T09:22:32.750Z,93.48
2023-12-09T09:23:32.734Z,93.48
2023-12-09T09:24:32.774Z,93.02
2023-12-09T09:25:32.705Z,93.16
2023-12-09T09:26:32.690Z,93.37
2023-12-09T09:27:32.861Z,93.27
2023-12-09T09:28:32.700Z,93.06
2023-12-09T09:29:32.658Z,93.02
2023-12-09T09:30:32.691Z,93.06
2023-12-09T09:31:32.660Z,93.06
2023-12-09T09:32:32.940Z,92.85
2023-12-09T09:33:32.758Z,92.96
2023-12-09T09:34:32.683Z,92.76
2023-12-09T09:35:32.594Z,93.43
2023-12-09T09:36:32.608Z,93.64
2023-12-09T09:37:32.634Z,93.95
2023-12-09T09:38:32.565Z,93.64
2023-12-09T09:39:32.636Z,93.54
2023-12-09T09:40:32.544Z,93.74
2023-12-09T09:41:32.562Z,93.43
2023-12-09T09:42:32.897Z,93.33
2023-12-09T09:43:32.510Z,93.12
2023-12-09T09:44:32.511Z,93.43
2023-12-09T09:45:33.068Z,93.43
2023-12-09T09:46:32.534Z,92.81
2023-12-09T09:47:32.508Z,93.02
2023-12-09T09:48:32.502Z,92.97
2023-12-09T09:49:32.552Z,92.71
2023-12-09T09:50:32.443Z,92.71
2023-12-09T09:51:32.487Z,92.97
2023-12-09T09:52:32.421Z,92.81
2023-12-09T09:53:32.402Z,92.71
2023-12-09T09:54:32.499Z,92.81
2023-12-09T09:55:32.411Z,92.57
2023-12-09T09:56:32.395Z,92.67
2023-12-09T09:57:32.404Z,92.81
2023-12-09T09:58:32.356Z,92.77
2023-12-09T09:59:32.346Z,92.77
2023-12-09T10:00:32.445Z,92.67
2023-12-09T10:01:32.357Z,92.71
2023-12-09T10:02:32.374Z,92.30
2023-12-09T10:03:32.352Z,92.67
2023-12-09T10:04:32.348Z,92.67
2023-12-09T10:05:32.317Z,92.77
2023-12-09T10:06:32.373Z,92.77
2023-12-09T10:07:32.408Z,92.81
2023-12-09T10:08:32.253Z,92.81
2023-12-09T10:09:32.324Z,92.91
2023-12-09T10:10:32.253Z,92.87
2023-12-09T10:11:32.213Z,92.77
2023-12-09T10:12:32.271Z,92.77
2023-12-09T10:13:32.198Z,92.25
2023-12-09T10:14:32.225Z,92.46
2023-12-09T10:15:32.197Z,92.77
2023-12-09T10:16:32.164Z,92.67
2023-12-09T10:17:32.229Z,92.36
2023-12-09T10:18:32.268Z,92.36
2023-12-09T10:19:32.264Z,92.36
2023-12-09T10:20:32.137Z,92.67
2023-12-09T10:21:32.183Z,92.46
2023-12-09T10:22:32.098Z,92.77
2023-12-09T10:23:32.096Z,92.77
2023-12-09T10:24:32.158Z,92.77
2023-12-09T10:25:32.080Z,92.25
2023-12-09T10:26:32.057Z,92.25
2023-12-09T10:27:32.084Z,92.77
2023-12-09T10:28:32.061Z,92.57
2023-12-09T10:29:32.020Z,92.36
2023-12-09T10:30:32.035Z,92.21
2023-12-09T10:31:32.007Z,92.42
2023-12-09T10:32:32.389Z,92.42
2023-12-09T10:33:32.101Z,92.42
2023-12-09T10:34:32.073Z,92.67
2023-12-09T10:35:31.958Z,92.67
2023-12-09T10:36:32.027Z,92.36
2023-12-09T10:37:31.954Z,92.57
2023-12-09T10:38:31.965Z,92.46
2023-12-09T10:39:31.962Z,92.46
2023-12-09T10:40:31.906Z,92.32
2023-12-09T10:41:31.900Z,92.25
2023-12-09T10:42:32.279Z,92.42
2023-12-09T10:43:31.870Z,92.32
2023-12-09T10:44:31.863Z,92.32
2023-12-09T10:45:31.881Z,92.32
2023-12-09T10:46:31.836Z,92.36
2023-12-09T10:47:32.071Z,92.42
2023-12-09T10:48:31.976Z,92.42
2023-12-09T10:49:31.898Z,92.21
2023-12-09T10:50:31.817Z,92.42
2023-12-09T10:51:31.887Z,92.63
2023-12-09T10:52:31.803Z,92.42
2023-12-09T10:53:31.776Z,92.25
2023-12-09T10:54:31.827Z,92.36
2023-12-09T10:55:31.762Z,92.46
2023-12-09T10:56:31.748Z,92.42
2023-12-09T10:57:31.747Z,92.32
2023-12-09T10:58:31.709Z,92.21
2023-12-09T10:59:31.695Z,92.83
2023-12-09T11:00:31.749Z,92.63
2023-12-09T11:01:31.761Z,92.52
2023-12-09T11:02:31.671Z,92.83
2023-12-09T11:03:31.687Z,92.42
2023-12-09T11:04:31.787Z,92.63
2023-12-09T11:05:31.655Z,92.32
2023-12-09T11:06:31.686Z,92.42
2023-12-09T11:07:31.614Z,92.32
2023-12-09T11:08:31.619Z,92.11
2023-12-09T11:09:31.586Z,92.11
2023-12-09T11:10:31.592Z,91.69
2023-12-09T11:11:31.594Z,91.80
2023-12-09T11:12:31.830Z,91.75
2023-12-09T11:13:31.544Z,91.59
2023-12-09T11:14:31.532Z,91.75
2023-12-09T11:15:31.661Z,91.86
2023-12-09T11:16:31.522Z,91.34
2023-12-09T11:17:31.607Z,91.65
2023-12-09T11:18:31.646Z,91.65
2023-12-09T11:19:31.650Z,92.00
2023-12-09T11:20:31.567Z,91.80
2023-12-09T11:21:31.488Z,91.75
2023-12-09T11:22:31.470Z,91.75
2023-12-09T11:23:31.436Z,91.86
2023-12-09T11:24:31.649Z,91.03
2023-12-09T11:25:31.468Z,91.30
2023-12-09T11:26:31.415Z,91.40
2023-12-09T11:27:31.437Z,91.40
2023-12-09T11:28:31.381Z,91.40
2023-12-09T11:29:31.420Z,91.50
2023-12-09T11:30:31.460Z,91.40
2023-12-09T11:31:31.351Z,91.30
2023-12-09T11:32:31.352Z,91.40
2023-12-09T11:33:31.427Z,90.99
2023-12-09T11:34:31.401Z,91.20
2023-12-09T11:35:31.312Z,90.89
2023-12-09T11:36:31.352Z,90.99
2023-12-09T11:37:31.289Z,91.05
2023-12-09T11:38:31.327Z,91.05
2023-12-09T11:39:31.301Z,90.74
2023-12-09T11:40:31.268Z,90.64
2023-12-09T11:41:31.245Z,90.64
2023-12-09T11:42:31.369Z,90.84
2023-12-09T11:43:31.238Z,90.68
2023-12-09T11:44:31.224Z,90.53
2023-12-09T11:45:31.291Z,90.33
2023-12-09T11:46:31.188Z,90.22
2023-12-09T11:47:31.231Z,90.47
2023-12-09T11:48:31.306Z,90.47
2023-12-09T11:49:31.227Z,90.06
2023-12-09T11:50:31.159Z,90.26
2023-12-09T11:51:31.152Z,90.26
2023-12-09T11:52:31.166Z,90.47
2023-12-09T11:53:31.148Z,91.30
2023-12-09T11:54:31.174Z,90.99
2023-12-09T11:55:31.117Z,91.82
2023-12-09T11:56:31.084Z,90.89
2023-12-09T11:57:31.112Z,90.99
2023-12-09T11:58:31.064Z,90.99
2023-12-09T11:59:31.079Z,91.09
2023-12-09T12:00:31.141Z,90.64
2023-12-09T12:01:31.072Z,91.20
2023-12-09T12:02:31.087Z,90.99
2023-12-09T12:03:31.089Z,91.05
2023-12-09T12:04:31.008Z,91.05
2023-12-09T12:05:31.017Z,90.74
2023-12-09T12:06:31.011Z,90.99
2023-12-09T12:07:30.979Z,90.68
2023-12-09T12:08:30.952Z,90.99
2023-12-09T12:09:30.992Z,90.89
2023-12-09T12:10:30.963Z,91.05
2023-12-09T12:11:30.945Z,90.95
2023-12-09T12:12:31.174Z,91.46
2023-12-09T12:13:30.900Z,91.05
2023-12-09T12:14:30.891Z,90.95
2023-12-09T12:15:30.906Z,91.05
2023-12-09T12:16:30.900Z,91.16
2023-12-09T12:17:30.979Z,91.09
2023-12-09T12:18:30.971Z,91.05
2023-12-09T12:19:30.926Z,91.09
2023-12-09T12:20:30.840Z,90.99
2023-12-09T12:21:30.917Z,91.05
2023-12-09T12:22:30.812Z,90.74
2023-12-09T12:23:33.145Z,91.16
2023-12-09T12:24:30.796Z,91.46
2023-12-09T12:25:30.796Z,91.16
2023-12-09T12:26:30.782Z,91.26
2023-12-09T12:27:30.775Z,90.95
2023-12-09T12:28:30.768Z,90.95
2023-12-09T12:29:30.730Z,91.16
2023-12-09T12:30:30.758Z,91.01
2023-12-09T12:31:30.707Z,91.16
2023-12-09T12:32:30.974Z,91.05
2023-12-09T12:33:30.751Z,90.74
2023-12-09T12:34:30.783Z,91.01
2023-12-09T12:35:30.676Z,90.74
2023-12-09T12:36:30.699Z,90.74
2023-12-09T12:37:30.649Z,90.95
2023-12-09T12:38:30.626Z,90.64
2023-12-09T12:39:30.695Z,90.84
2023-12-09T12:40:30.613Z,90.84
2023-12-09T12:41:30.605Z,91.26
2023-12-09T12:42:31.126Z,91.26
2023-12-09T12:43:30.584Z,91.32
2023-12-09T12:44:30.582Z,90.95
2023-12-09T12:45:30.586Z,91.32
2023-12-09T12:46:30.544Z,91.26
2023-12-09T12:47:30.576Z,91.46
2023-12-09T12:48:30.692Z,91.01
2023-12-09T12:49:30.580Z,91.01
2023-12-09T12:50:30.514Z,90.95
2023-12-09T12:51:30.518Z,91.05
2023-12-09T12:52:30.699Z,91.56